Terminal Aerodrome Forecast
Issued by NWS

Home | Current Version | Previous Version | Text Only | Print | Product List | Glossary On
Versions: 1 2 3 4 5 6 7 8 9 10 11 12 13 14
000
FTUS42 TJSJ 301700
TAFJMZ
TAF
TJMZ 301724Z 3018/3118 24009KT P6SM VCTS BKN030CB
      TEMPO 3018/3020 VRB12KT 3SM TSRA BKN025CB OVC040
     FM302330 06006KT P6SM FEW040
     FM311530 27010KT P6SM VCTS SCT025CB BKN040
      AMD NOT SKED 3023/3116=

USA.gov is the U.S. government's official web portal to all federal, state and local government web resources and services.